地図

経路データ

SID SEASON NUMBER BASIN SUBBASIN NAME ISO_TIME NATURE LAT LON WMO_WIND WMO_PRES WMO_AGENCY TRACK_TYPE DIST2LAND LANDFALL IFLAG USA_AGENCY USA_ATCF_ID USA_LAT USA_LON USA_RECORD USA_STATUS USA_WIND USA_PRES USA_SSHS USA_R34_NE USA_R34_SE USA_R34_SW USA_R34_NW USA_R50_NE USA_R50_SE USA_R50_SW USA_R50_NW USA_R64_NE USA_R64_SE USA_R64_SW USA_R64_NW USA_POCI USA_ROCI USA_RMW USA_EYE TOKYO_LAT TOKYO_LON TOKYO_GRADE TOKYO_WIND TOKYO_PRES TOKYO_R50_DIR TOKYO_R50_LONG TOKYO_R50_SHORT TOKYO_R30_DIR TOKYO_R30_LONG TOKYO_R30_SHORT TOKYO_LAND CMA_LAT CMA_LON CMA_CAT CMA_WIND CMA_PRES HKO_LAT HKO_LON HKO_CAT HKO_WIND HKO_PRES NEWDELHI_LAT NEWDELHI_LON NEWDELHI_GRADE NEWDELHI_WIND NEWDELHI_PRES NEWDELHI_CI NEWDELHI_DP NEWDELHI_POCI REUNION_LAT REUNION_LON REUNION_TYPE REUNION_WIND REUNION_PRES REUNION_TNUM REUNION_CI REUNION_RMW REUNION_R34_NE REUNION_R34_SE REUNION_R34_SW REUNION_R34_NW REUNION_R50_NE REUNION_R50_SE REUNION_R50_SW REUNION_R50_NW REUNION_R64_NE REUNION_R64_SE REUNION_R64_SW REUNION_R64_NW BOM_LAT BOM_LON BOM_TYPE BOM_WIND BOM_PRES BOM_TNUM BOM_CI BOM_RMW BOM_R34_NE BOM_R34_SE BOM_R34_SW BOM_R34_NW BOM_R50_NE BOM_R50_SE BOM_R50_SW BOM_R50_NW BOM_R64_NE BOM_R64_SE BOM_R64_SW BOM_R64_NW BOM_ROCI BOM_POCI BOM_EYE BOM_POS_METHOD BOM_PRES_METHOD NADI_LAT NADI_LON NADI_CAT NADI_WIND NADI_PRES WELLINGTON_LAT WELLINGTON_LON WELLINGTON_WIND WELLINGTON_PRES DS824_LAT DS824_LON DS824_STAGE DS824_WIND DS824_PRES TD9636_LAT TD9636_LON TD9636_STAGE TD9636_WIND TD9636_PRES TD9635_LAT TD9635_LON TD9635_WIND TD9635_PRES TD9635_ROCI NEUMANN_LAT NEUMANN_LON NEUMANN_CLASS NEUMANN_WIND NEUMANN_PRES MLC_LAT MLC_LON MLC_CLASS MLC_WIND MLC_PRES USA_GUST BOM_GUST BOM_GUST_PER REUNION_GUST REUNION_GUST_PER USA_SEAHGT USA_SEARAD_NE USA_SEARAD_SE USA_SEARAD_SW USA_SEARAD_NW STORM_SPEED STORM_DIR
1896300N09316 1896 44 NA NA NOT_NAMED 1896-10-26 06:00:00 TS 8.70000 -44.2000 35 hurdat_atl main 926 889 O_____________ hurdat_atl AL061896 8.70000 -44.2000 TS 35 0 9 269
1896300N09316 1896 44 NA NA NOT_NAMED 1896-10-26 09:00:00 TS 8.69014 -44.6300 main 889 853 P_____________ AL061896 8.69014 -44.6300 TS 35 0 8 270
1896300N09316 1896 44 NA NA NOT_NAMED 1896-10-26 12:00:00 TS 8.70000 -45.0000 35 hurdat_atl main 853 826 O_____________ hurdat_atl AL061896 8.70000 -45.0000 TS 35 0 6 275
1896300N09316 1896 44 NA NA NOT_NAMED 1896-10-26 15:00:00 TS 8.74243 -45.2725 main 826 815 P_____________ AL061896 8.74243 -45.2725 TS 37 0 5 281
1896300N09316 1896 44 NA NA NOT_NAMED 1896-10-26 18:00:00 TS 8.80000 -45.5000 40 hurdat_atl main 815 798 O_____________ hurdat_atl AL061896 8.80000 -45.5000 TS 40 0 5 283
1896300N09316 1896 44 NA NA NOT_NAMED 1896-10-26 21:00:00 TS 8.84997 -45.7425 main 798 780 P_____________ AL061896 8.84997 -45.7425 TS 40 0 5 281
1896300N09316 1896 44 NA NA NOT_NAMED 1896-10-27 00:00:00 TS 8.90000 -46.0000 40 hurdat_atl main 780 755 O_____________ hurdat_atl AL061896 8.90000 -46.0000 TS 40 0 5 280
1896300N09316 1896 44 NA NA NOT_NAMED 1896-10-27 03:00:00 TS 8.94245 -46.2775 main 755 739 P_____________ AL061896 8.94245 -46.2775 TS 42 0 6 280
1896300N09316 1896 44 NA NA NOT_NAMED 1896-10-27 06:00:00 TS 9.00000 -46.6000 45 hurdat_atl main 739 717 O_____________ hurdat_atl AL061896 9.00000 -46.6000 TS 45 0 7 282
1896300N09316 1896 44 NA NA NOT_NAMED 1896-10-27 09:00:00 TS 9.08498 -46.9775 main 717 697 P_____________ AL061896 9.08498 -46.9775 TS 45 0 8 284
1896300N09316 1896 44 NA NA NOT_NAMED 1896-10-27 12:00:00 TS 9.20000 -47.4000 45 hurdat_atl main 697 680 O_____________ hurdat_atl AL061896 9.20000 -47.4000 TS 45 0 9 287
1896300N09316 1896 44 NA NA NOT_NAMED 1896-10-27 15:00:00 TS 9.34247 -47.8425 main 680 670 P_____________ AL061896 9.34247 -47.8425 TS 47 0 9 289
1896300N09316 1896 44 NA NA NOT_NAMED 1896-10-27 18:00:00 TS 9.50000 -48.3000 50 hurdat_atl main 670 654 O_____________ hurdat_atl AL061896 9.50000 -48.3000 TS 50 0 9 289
1896300N09316 1896 44 NA NA NOT_NAMED 1896-10-27 21:00:00 TS 9.64994 -48.7500 main 647 637 P_____________ AL061896 9.64994 -48.7500 TS 52 0 9 289
1896300N09316 1896 44 NA NA NOT_NAMED 1896-10-28 00:00:00 TS 9.80000 -49.2000 55 hurdat_atl main 637 621 O_____________ hurdat_atl AL061896 9.80000 -49.2000 TS 55 0 9 288
1896300N09316 1896 44 NA NA NOT_NAMED 1896-10-28 03:00:00 TS 9.94244 -49.6501 main 616 609 P_____________ AL061896 9.94244 -49.6501 TS 57 0 9 289
1896300N09316 1896 44 NA NA NOT_NAMED 1896-10-28 06:00:00 TS 10.1000 -50.1000 60 hurdat_atl main 614 604 O_____________ hurdat_atl AL061896 10.1000 -50.1000 TS 60 0 10 292
1896300N09316 1896 44 NA NA NOT_NAMED 1896-10-28 09:00:00 TS 10.2924 -50.5500 main 610 606 P_____________ AL061896 10.2924 -50.5500 TS 62 0 10 294
1896300N09316 1896 44 NA NA NOT_NAMED 1896-10-28 12:00:00 TS 10.5000 -51.0000 65 hurdat_atl main 615 609 O_____________ hurdat_atl AL061896 10.5000 -51.0000 HU 65 1 10 294
1896300N09316 1896 44 NA NA NOT_NAMED 1896-10-28 15:00:00 TS 10.6924 -51.4501 main 614 609 P_____________ AL061896 10.6924 -51.4501 HU 65 1 10 294
1896300N09316 1896 44 NA NA NOT_NAMED 1896-10-28 18:00:00 TS 10.9000 -51.9000 65 hurdat_atl main 614 610 O_____________ hurdat_atl AL061896 10.9000 -51.9000 HU 65 1 10 297
1896300N09316 1896 44 NA NA NOT_NAMED 1896-10-28 21:00:00 TS 11.1349 -52.3501 main 615 615 P_____________ AL061896 11.1349 -52.3501 HU 67 1 10 300
1896300N09316 1896 44 NA NA NOT_NAMED 1896-10-29 00:00:00 TS 11.4000 -52.8000 70 hurdat_atl main 635 632 O_____________ hurdat_atl AL061896 11.4000 -52.8000 HU 70 1 10 302
1896300N09316 1896 44 NA NA NOT_NAMED 1896-10-29 03:00:00 TS 11.6924 -53.2501 main 657 657 P_____________ AL061896 11.6924 -53.2501 HU 72 1 11 304
1896300N09316 1896 44 NA NA NOT_NAMED 1896-10-29 06:00:00 TS 12.0000 -53.7000 75 hurdat_atl main 685 684 O_____________ hurdat_atl AL061896 12.0000 -53.7000 HU 75 1 11 304
1896300N09316 1896 44 NA NA NOT_NAMED 1896-10-29 09:00:00 TS 12.2850 -54.1651 main 712 704 P_____________ AL061896 12.2850 -54.1651 HU 77 1 11 304
1896300N09316 1896 44 NA NA NOT_NAMED 1896-10-29 12:00:00 TS 12.6000 -54.6000 80 hurdat_atl main 705 698 O_____________ hurdat_atl AL061896 12.6000 -54.6000 HU 80 1 11 311
1896300N09316 1896 44 NA NA NOT_NAMED 1896-10-29 15:00:00 TS 12.9850 -54.9875 main 702 685 P_____________ AL061896 12.9850 -54.9875 HU 82 1 11 320
1896300N09316 1896 44 NA NA NOT_NAMED 1896-10-29 18:00:00 TS 13.4000 -55.3000 85 hurdat_atl main 689 680 O_____________ hurdat_atl AL061896 13.4000 -55.3000 HU 85 2 10 326
1896300N09316 1896 44 NA NA NOT_NAMED 1896-10-29 21:00:00 TS 13.7924 -55.5376 main 691 682 P_____________ AL061896 13.7924 -55.5376 HU 85 2 9 334
1896300N09316 1896 44 NA NA NOT_NAMED 1896-10-30 00:00:00 TS 14.2000 -55.7000 85 hurdat_atl main 696 696 O_____________ hurdat_atl AL061896 14.2000 -55.7000 HU 85 2 9 342
1896300N09316 1896 44 NA NA NOT_NAMED 1896-10-30 03:00:00 TS 14.6350 -55.8226 main 713 713 P_____________ AL061896 14.6350 -55.8226 HU 85 2 9 348
1896300N09316 1896 44 NA NA NOT_NAMED 1896-10-30 06:00:00 TS 15.1000 -55.9000 85 hurdat_atl main 740 740 O_____________ hurdat_atl AL061896 15.1000 -55.9000 HU 85 2 10 352
1896300N09316 1896 44 NA NA NOT_NAMED 1896-10-30 09:00:00 TS 15.5850 -55.9650 main 770 770 P_____________ AL061896 15.5850 -55.9650 HU 85 2 10 354
1896300N09316 1896 44 NA NA NOT_NAMED 1896-10-30 12:00:00 TS 16.1000 -56.0000 85 hurdat_atl main 811 811 O_____________ hurdat_atl AL061896 16.1000 -56.0000 HU 85 2 11 357
1896300N09316 1896 44 NA NA NOT_NAMED 1896-10-30 15:00:00 TS 16.6425 -56.0224 main 853 853 P_____________ AL061896 16.6425 -56.0224 HU 85 2 11 0
1896300N09316 1896 44 NA NA NOT_NAMED 1896-10-30 18:00:00 TS 17.2000 -56.0000 85 hurdat_atl main 905 905 O_____________ hurdat_atl AL061896 17.2000 -56.0000 HU 85 2 11 5
1896300N09316 1896 44 NA NA NOT_NAMED 1896-10-30 21:00:00 TS 17.7500 -55.9225 main 957 957 P_____________ AL061896 17.7500 -55.9225 HU 85 2 11 10
1896300N09316 1896 44 NA NA NOT_NAMED 1896-10-31 00:00:00 TS 18.3000 -55.8000 85 hurdat_atl main 1018 1018 O_____________ hurdat_atl AL061896 18.3000 -55.8000 HU 85 2 11 12
1896300N09316 1896 44 NA NA NOT_NAMED 1896-10-31 03:00:00 TS 18.8575 -55.6724 main 1044 1044 P_____________ AL061896 18.8575 -55.6724 HU 85 2 11 14
1896300N09316 1896 44 NA NA NOT_NAMED 1896-10-31 06:00:00 TS 19.4000 -55.5000 85 hurdat_atl main 1068 1068 O_____________ hurdat_atl AL061896 19.4000 -55.5000 HU 85 2 11 19
1896300N09316 1896 44 NA NA NOT_NAMED 1896-10-31 09:00:00 TS 19.9074 -55.2798 main 1094 1094 P_____________ AL061896 19.9074 -55.2798 HU 85 2 11 25
1896300N09316 1896 44 NA NA NOT_NAMED 1896-10-31 12:00:00 TS 20.4000 -55.0000 85 hurdat_atl main 1133 1133 O_____________ hurdat_atl AL061896 20.4000 -55.0000 HU 85 2 12 30
1896300N09316 1896 44 NA NA NOT_NAMED 1896-10-31 15:00:00 TS 20.9075 -54.6650 main 1174 1174 P_____________ AL061896 20.9075 -54.6650 HU 85 2 12 33
1896300N09316 1896 44 NA NA NOT_NAMED 1896-10-31 18:00:00 TS 21.4000 -54.3000 85 hurdat_atl main 1227 1227 O_____________ hurdat_atl AL061896 21.4000 -54.3000 HU 85 2 12 35
1896300N09316 1896 44 NA NA NOT_NAMED 1896-10-31 21:00:00 TS 21.8649 -53.9498 main 1281 1281 P_____________ AL061896 21.8649 -53.9498 HU 85 2 11 36
1896300N09316 1896 44 NA NA NOT_NAMED 1896-11-01 00:00:00 TS 22.3000 -53.6000 85 hurdat_atl main 1324 1324 O_____________ hurdat_atl AL061896 22.3000 -53.6000 HU 85 2 11 38
1896300N09316 1896 44 NA NA NOT_NAMED 1896-11-01 03:00:00 TS 22.7075 -53.2423 main 1376 1376 P_____________ AL061896 22.7075 -53.2423 HU 85 2 10 39
1896300N09316 1896 44 NA NA NOT_NAMED 1896-11-01 06:00:00 TS 23.1000 -52.9000 85 hurdat_atl main 1420 1420 O_____________ hurdat_atl AL061896 23.1000 -52.9000 HU 85 2 10 37
1896300N09316 1896 44 NA NA NOT_NAMED 1896-11-01 09:00:00 TS 23.4999 -52.5923 main 1464 1464 P_____________ AL061896 23.4999 -52.5923 HU 85 2 10 35
1896300N09316 1896 44 NA NA NOT_NAMED 1896-11-01 12:00:00 TS 23.9000 -52.3000 85 hurdat_atl main 1508 1508 O_____________ hurdat_atl AL061896 23.9000 -52.3000 HU 85 2 10 34
1896300N09316 1896 44 NA NA NOT_NAMED 1896-11-01 15:00:00 TS 24.3075 -51.9924 main 1553 1553 P_____________ AL061896 24.3075 -51.9924 HU 85 2 10 34
1896300N09316 1896 44 NA NA NOT_NAMED 1896-11-01 18:00:00 TS 24.7000 -51.7000 85 hurdat_atl main 1599 1599 O_____________ hurdat_atl AL061896 24.7000 -51.7000 HU 85 2 9 33
1896300N09316 1896 44 NA NA NOT_NAMED 1896-11-01 21:00:00 TS 25.0574 -51.4497 main 1644 1644 P_____________ AL061896 25.0574 -51.4497 HU 85 2 8 33
1896300N09316 1896 44 NA NA NOT_NAMED 1896-11-02 00:00:00 TS 25.4000 -51.2000 85 hurdat_atl main 1677 1677 O_____________ hurdat_atl AL061896 25.4000 -51.2000 HU 85 2 9 35
1896300N09316 1896 44 NA NA NOT_NAMED 1896-11-02 03:00:00 TS 25.7575 -50.9074 main 1723 1723 P_____________ AL061896 25.7575 -50.9074 HU 85 2 9 38
1896300N09316 1896 44 NA NA NOT_NAMED 1896-11-02 06:00:00 TS 26.1000 -50.6000 85 hurdat_atl main 1764 1764 O_____________ hurdat_atl AL061896 26.1000 -50.6000 HU 85 2 9 40
1896300N09316 1896 44 NA NA NOT_NAMED 1896-11-02 09:00:00 TS 26.4074 -50.2998 main 1806 1806 P_____________ AL061896 26.4074 -50.2998 HU 85 2 8 42
1896300N09316 1896 44 NA NA NOT_NAMED 1896-11-02 12:00:00 TS 26.7000 -50.0000 85 hurdat_atl main 1848 1848 O_____________ hurdat_atl AL061896 26.7000 -50.0000 HU 85 2 8 42
1896300N09316 1896 44 NA NA NOT_NAMED 1896-11-02 15:00:00 TS 26.9999 -49.6998 main 1890 1890 P_____________ AL061896 26.9999 -49.6998 HU 85 2 8 42
1896300N09316 1896 44 NA NA NOT_NAMED 1896-11-02 18:00:00 TS 27.3000 -49.4000 85 hurdat_atl main 1931 1931 O_____________ hurdat_atl AL061896 27.3000 -49.4000 HU 85 2 8 41
1896300N09316 1896 44 NA NA NOT_NAMED 1896-11-02 21:00:00 TS 27.5999 -49.1073 main 1973 1973 P_____________ AL061896 27.5999 -49.1073 HU 85 2 8 42
1896300N09316 1896 44 NA NA NOT_NAMED 1896-11-03 00:00:00 TS 27.9000 -48.8000 85 hurdat_atl main 2015 2015 O_____________ hurdat_atl AL061896 27.9000 -48.8000 HU 85 2 8 44
1896300N09316 1896 44 NA NA NOT_NAMED 1896-11-03 03:00:00 TS 28.2000 -48.4499 main 2065 2061 P_____________ AL061896 28.2000 -48.4499 HU 85 2 9 46
1896300N09316 1896 44 NA NA NOT_NAMED 1896-11-03 06:00:00 TS 28.5000 -48.1000 85 hurdat_atl main 2063 2036 O_____________ hurdat_atl AL061896 28.5000 -48.1000 HU 85 2 8 44
1896300N09316 1896 44 NA NA NOT_NAMED 1896-11-03 09:00:00 TS 28.7998 -47.7997 main 2036 2010 P_____________ AL061896 28.7998 -47.7997 HU 85 2 8 41
1896300N09316 1896 44 NA NA NOT_NAMED 1896-11-03 12:00:00 TS 29.1000 -47.5000 85 hurdat_atl main 2010 1984 O_____________ hurdat_atl AL061896 29.1000 -47.5000 HU 85 2 8 43
1896300N09316 1896 44 NA NA NOT_NAMED 1896-11-03 15:00:00 TS 29.4000 -47.1574 main 1984 1961 P_____________ AL061896 29.4000 -47.1574 HU 85 2 9 45
1896300N09316 1896 44 NA NA NOT_NAMED 1896-11-03 18:00:00 TS 29.7000 -46.8000 85 hurdat_atl main 1961 1936 O_____________ hurdat_atl AL061896 29.7000 -46.8000 HU 85 2 9 46
1896300N09316 1896 44 NA NA NOT_NAMED 1896-11-03 21:00:00 TS 29.9999 -46.4498 main 1938 1914 P_____________ AL061896 29.9999 -46.4498 HU 85 2 9 45
1896300N09316 1896 44 NA NA NOT_NAMED 1896-11-04 00:00:00 TS 30.3000 -46.1000 85 hurdat_atl main 1914 1891 O_____________ hurdat_atl AL061896 30.3000 -46.1000 HU 85 2 8 45
1896300N09316 1896 44 NA NA NOT_NAMED 1896-11-04 03:00:00 TS 30.5998 -45.7572 main 1891 1868 P_____________ AL061896 30.5998 -45.7572 HU 85 2 9 45
1896300N09316 1896 44 NA NA NOT_NAMED 1896-11-04 06:00:00 TS 30.9000 -45.4000 85 hurdat_atl main 1871 1848 O_____________ hurdat_atl AL061896 30.9000 -45.4000 HU 85 2 9 47
1896300N09316 1896 44 NA NA NOT_NAMED 1896-11-04 09:00:00 TS 31.1848 -45.0219 main 1852 1834 P_____________ AL061896 31.1848 -45.0219 HU 85 2 9 49
1896300N09316 1896 44 NA NA NOT_NAMED 1896-11-04 12:00:00 TS 31.5000 -44.6000 85 hurdat_atl main 1834 1813 O_____________ hurdat_atl AL061896 31.5000 -44.6000 HU 85 2 10 48
1896300N09316 1896 44 NA NA NOT_NAMED 1896-11-04 15:00:00 TS 31.8698 -44.1295 main 1810 1788 P_____________ AL061896 31.8698 -44.1295 HU 85 2 12 47
1896300N09316 1896 44 NA NA NOT_NAMED 1896-11-04 18:00:00 TS 32.3000 -43.6000 85 hurdat_atl main 1788 1763 O_____________ hurdat_atl AL061896 32.3000 -43.6000 HU 85 2 13 46
1896300N09316 1896 44 NA NA NOT_NAMED 1896-11-04 21:00:00 TS 32.7698 -43.0219 main 1761 1737 P_____________ AL061896 32.7698 -43.0219 HU 85 2 14 45
1896300N09316 1896 44 NA NA NOT_NAMED 1896-11-05 00:00:00 TS 33.3000 -42.4000 85 hurdat_atl main 1737 1707 O_____________ hurdat_atl AL061896 33.3000 -42.4000 HU 85 2 16 44
1896300N09316 1896 44 NA NA NOT_NAMED 1896-11-05 03:00:00 TS 33.8928 -41.7205 main 1711 1684 P_____________ AL061896 33.8928 -41.7205 HU 85 2 16 42
1896300N09316 1896 44 NA NA NOT_NAMED 1896-11-05 06:00:00 TS 34.5000 -41.1000 85 hurdat_atl main 1684 1658 O_____________ hurdat_atl AL061896 34.5000 -41.1000 HU 85 2 14 37
1896300N09316 1896 44 NA NA NOT_NAMED 1896-11-05 09:00:00 TS 35.0343 -40.6754 main 1658 1626 P_____________ AL061896 35.0343 -40.6754 HU 85 2 13 31
1896300N09316 1896 44 NA NA NOT_NAMED 1896-11-05 12:00:00 TS 35.6000 -40.3000 85 hurdat_atl main 1626 1596 O_____________ hurdat_atl AL061896 35.6000 -40.3000 HU 85 2 15 31
1896300N09316 1896 44 NA NA NOT_NAMED 1896-11-05 15:00:00 TS 36.2780 -39.7638 main 1593 1563 P_____________ AL061896 36.2780 -39.7638 HU 85 2 16 30
1896300N09316 1896 44 NA NA NOT_NAMED 1896-11-05 18:00:00 TS 37.0000 -39.3000 85 hurdat_atl main 1563 1525 O_____________ hurdat_atl AL061896 37.0000 -39.3000 HU 85 2 15 23
1896300N09316 1896 44 NA NA NOT_NAMED 1896-11-05 21:00:00 TS 37.6995 -39.0229 main 1525 1471 P_____________ AL061896 37.6995 -39.0229 HU 85 2 14 10
1896300N09316 1896 44 NA NA NOT_NAMED 1896-11-06 00:00:00 TS 38.4000 -39.0000 85 hurdat_atl main 1471 1405 O_____________ hurdat_atl AL061896 38.4000 -39.0000 HU 85 2 15 354
1896300N09316 1896 44 NA NA NOT_NAMED 1896-11-06 03:00:00 TS 39.1597 -39.2283 main 1398 1322 P_____________ AL061896 39.1597 -39.2283 HU 85 2 15 339
1896300N09316 1896 44 NA NA NOT_NAMED 1896-11-06 06:00:00 TS 39.8000 -39.7000 85 hurdat_atl main 1322 1254 O_____________ hurdat_atl AL061896 39.8000 -39.7000 HU 85 2 14 320
1896300N09316 1896 44 NA NA NOT_NAMED 1896-11-06 09:00:00 TS 40.2060 -40.3646 main 1248 1194 P_____________ AL061896 40.2060 -40.3646 HU 82 1 12 301
1896300N09316 1896 44 NA NA NOT_NAMED 1896-11-06 12:00:00 TS 40.4000 -41.0000 80 hurdat_atl main 1194 1168 O_____________ hurdat_atl AL061896 40.4000 -41.0000 HU 80 1 8 290
1896300N09316 1896 44 NA NA NOT_NAMED 1896-11-06 15:00:00 TS 40.4668 -41.3033 main 1168 1162 P_____________ AL061896 40.4668 -41.3033 HU 80 1 4 270
1896300N09316 1896 44 NA NA NOT_NAMED 1896-11-06 18:00:00 TS 40.4000 -41.5000 80 hurdat_atl main 1163 1151 O_____________ hurdat_atl AL061896 40.4000 -41.5000 HU 80 1 4 245
1896300N09316 1896 44 NA NA NOT_NAMED 1896-11-06 21:00:00 TS 40.2875 -41.8001 main 1151 1145 P_____________ AL061896 40.2875 -41.8001 HU 80 1 5 237
1896300N09316 1896 44 NA NA NOT_NAMED 1896-11-07 00:00:00 TS 40.1000 -42.1000 80 hurdat_atl main 1147 1141 O_____________ hurdat_atl AL061896 40.1000 -42.1000 HU 80 1 6 226
1896300N09316 1896 44 NA NA NOT_NAMED 1896-11-07 03:00:00 TS 39.8724 -42.3649 main 1144 1144 P_____________ AL061896 39.8724 -42.3649 HU 77 1 6 218
1896300N09316 1896 44 NA NA NOT_NAMED 1896-11-07 06:00:00 TS 39.6000 -42.6000 75 hurdat_atl main 1156 1156 O_____________ hurdat_atl AL061896 39.6000 -42.6000 HU 75 1 7 212
1896300N09316 1896 44 NA NA NOT_NAMED 1896-11-07 09:00:00 TS 39.3000 -42.8377 main 1168 1162 P_____________ AL061896 39.3000 -42.8377 HU 75 1 7 207
1896300N09316 1896 44 NA NA NOT_NAMED 1896-11-07 12:00:00 TS 39.0000 -43.0000 75 hurdat_atl main 1182 1182 O_____________ hurdat_atl AL061896 39.0000 -43.0000 HU 75 1 6 198
1896300N09316 1896 44 NA NA NOT_NAMED 1896-11-07 15:00:00 TS 38.7498 -43.0676 main 1201 1201 P_____________ AL061896 38.7498 -43.0676 HU 75 1 5 178
1896300N09316 1896 44 NA NA NOT_NAMED 1896-11-07 18:00:00 TS 38.5000 -43.0000 75 hurdat_atl main 1224 1224 O_____________ hurdat_atl AL061896 38.5000 -43.0000 HU 75 1 6 160
1896300N09316 1896 44 NA NA NOT_NAMED 1896-11-07 21:00:00 TS 38.1999 -42.8099 main 1261 1261 P_____________ AL061896 38.1999 -42.8099 HU 72 1 7 147
1896300N09316 1896 44 NA NA NOT_NAMED 1896-11-08 00:00:00 TS 37.9000 -42.5000 70 hurdat_atl main 1303 1303 O_____________ hurdat_atl AL061896 37.9000 -42.5000 HU 70 1 8 137
1896300N09316 1896 44 NA NA NOT_NAMED 1896-11-08 03:00:00 TS 37.6349 -42.1376 main 1351 1351 P_____________ AL061896 37.6349 -42.1376 HU 70 1 8 128
1896300N09316 1896 44 NA NA NOT_NAMED 1896-11-08 06:00:00 TS 37.4000 -41.7000 70 hurdat_atl main 1391 1391 O_____________ hurdat_atl AL061896 37.4000 -41.7000 HU 70 1 9 121
1896300N09316 1896 44 NA NA NOT_NAMED 1896-11-08 09:00:00 TS 37.1924 -41.2228 main 1436 1436 P_____________ AL061896 37.1924 -41.2228 HU 67 1 9 117
1896300N09316 1896 44 NA NA NOT_NAMED 1896-11-08 12:00:00 TS 37.0000 -40.7000 65 hurdat_atl main 1481 1481 O_____________ hurdat_atl AL061896 37.0000 -40.7000 HU 65 1 9 116
1896300N09316 1896 44 NA NA NOT_NAMED 1896-11-08 15:00:00 TS 36.7846 -40.1725 main 1527 1527 P_____________ AL061896 36.7846 -40.1725 HU 62 0 10 114
1896300N09316 1896 44 NA NA NOT_NAMED 1896-11-08 18:00:00 TS 36.6000 -39.6000 60 hurdat_atl main 1579 1579 O_____________ hurdat_atl AL061896 36.6000 -39.6000 TS 60 0 10 108
1896300N09316 1896 44 NA NA NOT_NAMED 1896-11-08 21:00:00 TS 36.4845 -38.9880 main 1622 1622 P_____________ AL061896 36.4845 -38.9880 TS 57 0 11 101
1896300N09316 1896 44 NA NA NOT_NAMED 1896-11-09 00:00:00 TS 36.4000 -38.3000 55 hurdat_atl main 1673 1673 O_____________ hurdat_atl AL061896 36.4000 -38.3000 TS 55 0 12 99
1896300N09316 1896 44 NA NA NOT_NAMED 1896-11-09 03:00:00 TS 36.2997 -37.5301 main 1730 1730 P_____________ AL061896 36.2997 -37.5301 TS 52 0 13 99
1896300N09316 1896 44 NA NA NOT_NAMED 1896-11-09 06:00:00 TS 36.2000 -36.7000 50 hurdat_atl main 1788 1788 O_____________ hurdat_atl AL061896 36.2000 -36.7000 TS 50 0 14 99
1896300N09316 1896 44 NA NA NOT_NAMED 1896-11-09 09:00:00 TS 36.0854 -35.8122 main 1852 1852 P_____________ AL061896 36.0854 -35.8122 TS 47 0 14 98
1896300N09316 1896 44 NA NA NOT_NAMED 1896-11-09 12:00:00 TS 36.0000 -35.0000 45 hurdat_atl main 1909 1859 O_____________ hurdat_atl AL061896 36.0000 -35.0000 TS 45 0 12 95
1896300N09316 1896 44 NA NA NOT_NAMED 1896-11-09 15:00:00 TS 35.9798 -34.3879 main 1859 1818 P_____________ AL061896 35.9798 -34.3879 TS 40 0 9 90
1896300N09316 1896 44 NA NA NOT_NAMED 1896-11-09 18:00:00 TS 36.0000 -33.9000 35 hurdat_atl main 1818 O_____________ hurdat_atl AL061896 36.0000 -33.9000 TS 35 0 8 87

IBTrACS Databaseについて

本データベースは、米国NOAAが公開する1842年以降の世界の熱帯低気圧のベストトラックデータアーカイブInternational Best Track Archive for Climate Stewardship (IBTrACS)を、ウェブで閲覧しやすい形式に変換したものです。

最終更新日:2021-10-08